createdAt,value
2022-08-28T00:00:32.800Z,21.50
2022-08-28T00:03:01.354Z,21.49
2022-08-28T00:05:32.204Z,21.48
2022-08-28T00:08:02.487Z,21.46
2022-08-28T00:10:31.796Z,21.41
2022-08-28T00:13:00.340Z,21.36
2022-08-28T00:15:32.352Z,21.34
2022-08-28T00:18:00.744Z,21.33
2022-08-28T00:20:30.298Z,21.31
2022-08-28T00:22:59.658Z,21.28
2022-08-28T00:25:29.959Z,21.24
2022-08-28T00:28:05.210Z,21.27
2022-08-28T00:30:39.829Z,21.26
2022-08-28T00:33:11.630Z,21.22
2022-08-28T00:35:40.633Z,21.24
2022-08-28T00:38:09.126Z,21.26
2022-08-28T00:40:39.038Z,21.28
2022-08-28T00:43:10.803Z,21.28
2022-08-28T00:45:40.127Z,21.29
2022-08-28T00:48:08.451Z,21.26
2022-08-28T00:50:51.204Z,21.26
2022-08-28T00:53:19.661Z,21.24
2022-08-28T00:55:47.708Z,21.25
2022-08-28T00:58:17.552Z,21.24
2022-08-28T01:00:45.351Z,21.26
2022-08-28T01:03:13.300Z,21.23
2022-08-28T01:05:46.842Z,21.22
2022-08-28T01:08:14.925Z,21.18
2022-08-28T01:10:46.887Z,21.14
2022-08-28T01:13:16.712Z,21.11
2022-08-28T01:15:44.889Z,21.11
2022-08-28T01:18:16.555Z,21.10
2022-08-28T01:20:49.209Z,21.04
2022-08-28T01:23:24.451Z,21.03
2022-08-28T01:25:53.680Z,20.98
2022-08-28T01:28:21.851Z,20.99
2022-08-28T01:30:50.195Z,20.98
2022-08-28T01:33:19.577Z,20.98
2022-08-28T01:35:55.927Z,20.93
2022-08-28T01:38:26.958Z,20.91
2022-08-28T01:40:57.843Z,20.91
2022-08-28T01:43:28.340Z,20.89
2022-08-28T01:46:01.868Z,20.88
2022-08-28T01:48:32.123Z,20.85
2022-08-28T01:51:00.708Z,20.81
2022-08-28T01:53:32.485Z,20.82
2022-08-28T01:56:04.603Z,20.80
2022-08-28T01:58:37.943Z,20.78
2022-08-28T02:01:10.569Z,20.77
2022-08-28T02:03:38.434Z,20.77
2022-08-28T02:06:07.304Z,20.77
2022-08-28T02:08:35.755Z,20.77
2022-08-28T02:11:06.252Z,20.75
2022-08-28T02:13:35.067Z,20.74
2022-08-28T02:16:03.854Z,20.72
2022-08-28T02:18:31.677Z,20.74
2022-08-28T02:20:59.607Z,20.72
2022-08-28T02:23:27.485Z,20.69
2022-08-28T02:25:55.291Z,20.67
2022-08-28T02:28:24.464Z,20.59
2022-08-28T02:30:52.471Z,20.60
2022-08-28T02:33:20.306Z,20.56
2022-08-28T02:35:48.167Z,20.51
2022-08-28T02:38:17.114Z,20.53
2022-08-28T02:40:47.078Z,20.56
2022-08-28T02:43:14.860Z,20.57
2022-08-28T02:45:43.950Z,20.57
2022-08-28T02:48:16.958Z,20.53
2022-08-28T02:50:46.257Z,20.54
2022-08-28T02:53:14.959Z,20.54
2022-08-28T02:55:42.727Z,20.56
2022-08-28T02:58:10.752Z,20.60
2022-08-28T03:00:38.627Z,20.58
2022-08-28T03:03:08.672Z,20.56
2022-08-28T03:05:36.471Z,20.56
2022-08-28T03:08:04.860Z,20.54
2022-08-28T03:10:32.703Z,20.52
2022-08-28T03:13:00.542Z,20.52
2022-08-28T03:15:28.392Z,20.53
2022-08-28T03:17:56.215Z,20.52
2022-08-28T03:20:25.557Z,20.50
2022-08-28T03:23:15.912Z,20.50
2022-08-28T03:25:43.864Z,20.46
2022-08-28T03:28:12.004Z,20.48
2022-08-28T03:30:40.510Z,20.46
2022-08-28T03:33:08.379Z,20.46
2022-08-28T03:35:38.278Z,20.46
2022-08-28T03:38:06.606Z,20.44
2022-08-28T03:40:34.533Z,20.42
2022-08-28T03:43:02.334Z,20.40
2022-08-28T03:45:30.189Z,20.41
2022-08-28T03:47:57.963Z,20.39
2022-08-28T03:50:25.693Z,20.41
2022-08-28T03:52:57.673Z,20.38
2022-08-28T03:55:25.737Z,20.41
2022-08-28T03:57:53.887Z,20.41
2022-08-28T04:00:21.704Z,20.42
2022-08-28T04:02:49.454Z,20.36
2022-08-28T04:05:17.609Z,20.30
2022-08-28T04:07:45.819Z,20.25
2022-08-28T04:10:15.369Z,20.26
2022-08-28T04:12:43.639Z,20.28
2022-08-28T04:15:12.918Z,20.28
2022-08-28T04:17:41.387Z,20.28
2022-08-28T04:20:10.962Z,20.26
2022-08-28T04:22:38.829Z,20.31
2022-08-28T04:25:08.121Z,20.28
2022-08-28T04:27:37.267Z,20.28
2022-08-28T04:30:07.028Z,20.27
2022-08-28T04:32:39.091Z,20.23
2022-08-28T04:35:09.752Z,20.21
2022-08-28T04:37:39.112Z,20.18
2022-08-28T04:40:09.881Z,20.16
2022-08-28T04:42:40.094Z,20.11
2022-08-28T04:45:08.842Z,20.11
2022-08-28T04:47:37.975Z,20.06
2022-08-28T04:50:07.882Z,20.05
2022-08-28T04:52:35.880Z,20.03
2022-08-28T04:55:04.789Z,20.04
2022-08-28T04:57:36.240Z,20.06
2022-08-28T05:00:09.502Z,20.06
2022-08-28T05:02:37.479Z,20.11
2022-08-28T05:05:06.074Z,20.10
2022-08-28T05:07:34.739Z,20.12
2022-08-28T05:10:02.509Z,20.15
2022-08-28T05:12:30.906Z,20.18
2022-08-28T05:14:58.715Z,20.16
2022-08-28T05:17:27.825Z,20.17
2022-08-28T05:19:59.966Z,20.18
2022-08-28T05:22:28.889Z,20.17
2022-08-28T05:24:56.704Z,20.19
2022-08-28T05:27:25.666Z,20.20
2022-08-28T05:29:56.310Z,20.18
2022-08-28T05:32:27.706Z,20.19
2022-08-28T05:34:55.927Z,20.22
2022-08-28T05:37:23.652Z,20.25
2022-08-28T05:39:51.466Z,20.29
2022-08-28T05:42:19.303Z,20.30
2022-08-28T05:44:47.093Z,20.31
2022-08-28T05:47:15.270Z,20.34
2022-08-28T05:49:44.548Z,20.37
2022-08-28T05:52:12.375Z,20.35
2022-08-28T05:54:44.152Z,20.30
2022-08-28T05:57:11.921Z,20.30
2022-08-28T05:59:39.729Z,20.30
2022-08-28T06:02:07.590Z,20.34
2022-08-28T06:04:36.289Z,20.34
2022-08-28T06:07:06.488Z,20.41
2022-08-28T06:09:34.280Z,20.45
2022-08-28T06:12:02.957Z,20.46
2022-08-28T06:14:31.732Z,20.46
2022-08-28T06:17:00.962Z,20.49
2022-08-28T06:19:30.599Z,20.48
2022-08-28T06:22:00.915Z,20.52
2022-08-28T06:24:31.024Z,20.55
2022-08-28T06:26:59.628Z,20.55
2022-08-28T06:29:29.183Z,20.57
2022-08-28T06:31:59.269Z,20.61
2022-08-28T06:34:27.800Z,20.69
2022-08-28T06:36:55.950Z,20.68
2022-08-28T06:39:24.114Z,20.71
2022-08-28T06:41:53.713Z,20.76
2022-08-28T06:44:22.563Z,20.83
2022-08-28T06:46:52.433Z,20.84
2022-08-28T06:49:20.579Z,20.83
2022-08-28T06:51:48.569Z,20.82
2022-08-28T06:54:22.370Z,20.85
2022-08-28T06:56:51.682Z,20.89
2022-08-28T06:59:21.379Z,20.93
2022-08-28T07:01:49.700Z,20.92
2022-08-28T07:04:17.657Z,20.95
2022-08-28T07:06:47.001Z,21.01
2022-08-28T07:09:15.553Z,21.01
2022-08-28T07:11:46.567Z,20.99
2022-08-28T07:14:14.467Z,21.01
2022-08-28T07:16:44.575Z,20.99
2022-08-28T07:19:13.499Z,21.01
2022-08-28T07:21:43.984Z,21.04
2022-08-28T07:24:13.710Z,21.03
2022-08-28T07:26:43.465Z,21.06
2022-08-28T07:29:11.863Z,21.09
2022-08-28T07:31:42.756Z,21.11
2022-08-28T07:34:13.617Z,21.15
2022-08-28T07:36:42.258Z,21.23
2022-08-28T07:39:11.991Z,21.28
2022-08-28T07:41:42.607Z,21.32
2022-08-28T07:44:30.754Z,21.34
2022-08-28T07:47:02.245Z,21.40
2022-08-28T07:49:33.724Z,21.46
2022-08-28T07:52:01.857Z,21.52
2022-08-28T07:54:29.767Z,21.51
2022-08-28T07:56:57.726Z,21.58
2022-08-28T07:59:25.592Z,21.58
2022-08-28T08:01:53.993Z,21.63
2022-08-28T08:04:23.384Z,21.64
2022-08-28T08:06:57.820Z,21.68
2022-08-28T08:09:27.359Z,21.70
2022-08-28T08:11:57.609Z,21.75
2022-08-28T08:14:25.651Z,21.80
2022-08-28T08:16:53.622Z,21.83
2022-08-28T08:19:21.572Z,21.92
2022-08-28T08:21:54.539Z,22.15
2022-08-28T08:24:26.360Z,22.35
2022-08-28T08:26:59.215Z,22.58
2022-08-28T08:29:31.481Z,22.84
2022-08-28T08:32:05.031Z,23.11
2022-08-28T08:34:33.743Z,23.38
2022-08-28T08:37:01.634Z,23.61
2022-08-28T08:39:31.835Z,23.82
2022-08-28T08:42:01.835Z,24.03
2022-08-28T08:44:34.169Z,24.25
2022-08-28T08:47:14.831Z,24.50
2022-08-28T08:49:50.337Z,24.75
2022-08-28T08:52:43.152Z,25.10
2022-08-28T08:55:23.117Z,25.33
2022-08-28T08:58:00.457Z,25.38
2022-08-28T09:00:29.314Z,25.32
2022-08-28T09:03:05.878Z,25.33
2022-08-28T09:05:50.092Z,25.41
2022-08-28T09:08:27.599Z,25.59
2022-08-28T09:11:02.667Z,25.68
2022-08-28T09:13:38.573Z,25.62
2022-08-28T09:16:17.753Z,25.64
2022-08-28T09:18:48.141Z,25.63
2022-08-28T09:21:29.217Z,25.59
2022-08-28T09:24:01.131Z,25.46
2022-08-28T09:26:35.001Z,25.33
2022-08-28T09:29:07.373Z,25.30
2022-08-28T09:31:38.323Z,25.26
2022-08-28T09:34:29.079Z,25.22
2022-08-28T09:36:58.589Z,25.14
2022-08-28T09:39:28.823Z,25.04
2022-08-28T09:42:33.412Z,24.96
2022-08-28T09:45:09.134Z,24.90
2022-08-28T09:47:46.636Z,24.97
2022-08-28T09:50:34.145Z,25.26
2022-08-28T09:53:18.343Z,25.51
2022-08-28T09:55:56.610Z,25.69
2022-08-28T09:58:33.548Z,25.94
2022-08-28T10:01:10.142Z,26.21
2022-08-28T10:03:45.332Z,26.45
2022-08-28T10:06:20.065Z,26.72
2022-08-28T10:09:00.412Z,26.96
2022-08-28T10:11:38.371Z,27.18
2022-08-28T10:14:25.365Z,27.40
2022-08-28T10:17:11.839Z,27.71
2022-08-28T10:19:50.246Z,27.86
2022-08-28T10:22:30.475Z,27.88
2022-08-28T10:25:08.990Z,27.89
2022-08-28T10:27:51.869Z,27.95
2022-08-28T10:30:23.937Z,28.04
2022-08-28T10:33:17.805Z,28.08
2022-08-28T10:35:52.992Z,28.21
2022-08-28T10:38:29.385Z,28.14
2022-08-28T10:41:03.455Z,28.11
2022-08-28T10:43:35.784Z,28.12
2022-08-28T10:46:10.850Z,28.23
2022-08-28T10:48:46.332Z,28.42
2022-08-28T10:51:19.787Z,28.65
2022-08-28T10:54:08.134Z,28.82
2022-08-28T10:56:41.134Z,29.11
2022-08-28T10:59:08.977Z,29.05
2022-08-28T11:01:41.117Z,28.93
2022-08-28T11:04:23.453Z,28.90
2022-08-28T11:06:57.492Z,28.90
2022-08-28T11:09:34.719Z,28.94
2022-08-28T11:12:06.946Z,28.99
2022-08-28T11:14:47.551Z,29.05
2022-08-28T11:17:40.508Z,29.14
2022-08-28T11:20:16.707Z,29.30
2022-08-28T11:22:48.294Z,29.42
2022-08-28T11:25:26.609Z,29.46
2022-08-28T11:28:17.670Z,29.61
2022-08-28T11:30:47.120Z,29.70
2022-08-28T11:33:40.406Z,29.68
2022-08-28T11:36:12.216Z,29.69
2022-08-28T11:39:20.104Z,29.83
2022-08-28T11:42:33.453Z,29.92
2022-08-28T11:45:01.821Z,30.10
2022-08-28T11:47:43.366Z,30.23
2022-08-28T11:50:26.366Z,30.44
2022-08-28T11:53:36.102Z,30.57
2022-08-28T11:56:31.100Z,30.63
2022-08-28T11:59:13.366Z,30.35
2022-08-28T12:01:41.417Z,30.35
2022-08-28T12:04:13.320Z,30.34
2022-08-28T12:06:55.549Z,30.67
2022-08-28T12:09:45.020Z,30.76
2022-08-28T12:12:29.289Z,30.76
2022-08-28T12:15:01.570Z,30.80
2022-08-28T12:17:48.755Z,30.73
2022-08-28T12:21:00.401Z,30.71
2022-08-28T12:23:42.260Z,30.89
2022-08-28T12:26:19.006Z,31.12
2022-08-28T12:28:51.076Z,31.12
2022-08-28T12:32:08.462Z,30.63
2022-08-28T12:34:44.478Z,30.71
2022-08-28T12:37:36.926Z,30.82
2022-08-28T12:40:25.768Z,31.03
2022-08-28T12:42:56.649Z,31.18
2022-08-28T12:45:29.068Z,31.26
2022-08-28T12:48:01.126Z,31.34
2022-08-28T12:50:33.141Z,31.46
2022-08-28T12:53:03.825Z,31.49
2022-08-28T12:55:34.288Z,31.44
2022-08-28T12:58:02.102Z,31.39
2022-08-28T13:00:36.133Z,31.19
2022-08-28T13:03:08.244Z,31.02
2022-08-28T13:05:39.713Z,31.06
2022-08-28T13:08:10.715Z,31.16
2022-08-28T13:10:44.046Z,31.17
2022-08-28T13:13:20.713Z,31.19
2022-08-28T13:15:55.313Z,31.26
2022-08-28T13:18:42.646Z,31.53
2022-08-28T13:21:25.542Z,31.74
2022-08-28T13:24:17.657Z,31.83
2022-08-28T13:26:47.141Z,31.89
2022-08-28T13:29:20.527Z,31.90
2022-08-28T13:31:59.414Z,32.02
2022-08-28T13:34:29.566Z,32.06
2022-08-28T13:36:59.845Z,32.23
2022-08-28T13:39:30.178Z,32.23
2022-08-28T13:42:06.055Z,32.10
2022-08-28T13:44:35.773Z,31.80
2022-08-28T13:47:06.822Z,31.45
2022-08-28T13:49:35.560Z,31.30
2022-08-28T13:52:07.177Z,31.30
2022-08-28T13:54:35.043Z,31.40
2022-08-28T13:57:05.435Z,31.43
2022-08-28T13:59:33.610Z,31.41
2022-08-28T14:02:22.012Z,31.38
2022-08-28T14:04:49.842Z,31.34
2022-08-28T14:07:17.994Z,31.33
2022-08-28T14:09:46.106Z,31.16
2022-08-28T14:12:15.380Z,31.07
2022-08-28T14:14:43.343Z,31.09
2022-08-28T14:17:11.663Z,30.98
2022-08-28T14:19:39.494Z,30.75
2022-08-28T14:22:07.360Z,30.64
2022-08-28T14:24:35.192Z,30.64
2022-08-28T14:27:03.003Z,30.52
2022-08-28T14:29:32.439Z,30.37
2022-08-28T14:32:01.809Z,30.36
2022-08-28T14:34:29.843Z,30.45
2022-08-28T14:36:57.670Z,30.67
2022-08-28T14:39:27.506Z,30.81
2022-08-28T14:41:55.704Z,30.85
2022-08-28T14:44:25.276Z,30.76
2022-08-28T14:46:56.984Z,30.82
2022-08-28T14:49:26.036Z,30.79
2022-08-28T14:51:54.995Z,30.76
2022-08-28T14:54:26.259Z,30.61
2022-08-28T14:56:55.419Z,30.40
2022-08-28T14:59:25.736Z,30.26
2022-08-28T15:01:58.135Z,30.22
2022-08-28T15:04:28.145Z,30.18
2022-08-28T15:06:59.627Z,30.13
2022-08-28T15:09:28.412Z,30.11
2022-08-28T15:11:56.225Z,30.20
2022-08-28T15:14:24.014Z,30.05
2022-08-28T15:16:52.965Z,29.94
2022-08-28T15:19:23.326Z,29.86
2022-08-28T15:21:53.473Z,29.86
2022-08-28T15:24:23.303Z,29.69
2022-08-28T15:26:51.233Z,29.56
2022-08-28T15:29:19.411Z,29.30
2022-08-28T15:31:50.014Z,29.22
2022-08-28T15:34:20.047Z,29.28
2022-08-28T15:36:54.833Z,29.18
2022-08-28T15:39:41.129Z,29.04
2022-08-28T15:42:09.954Z,28.91
2022-08-28T15:44:38.173Z,28.73
2022-08-28T15:47:06.523Z,28.64
2022-08-28T15:49:46.900Z,28.60
2022-08-28T15:52:19.662Z,28.64
2022-08-28T15:54:47.893Z,28.62
2022-08-28T15:57:15.678Z,28.64
2022-08-28T15:59:49.452Z,28.62
2022-08-28T16:02:19.591Z,28.59
2022-08-28T16:04:47.572Z,28.55
2022-08-28T16:07:15.635Z,28.54
2022-08-28T16:09:44.814Z,28.48
2022-08-28T16:12:12.558Z,28.40
2022-08-28T16:14:40.339Z,28.39
2022-08-28T16:17:10.956Z,28.32
2022-08-28T16:19:39.630Z,28.32
2022-08-28T16:22:07.454Z,28.29
2022-08-28T16:24:35.225Z,28.26
2022-08-28T16:27:04.470Z,28.20
2022-08-28T16:29:34.284Z,28.16
2022-08-28T16:32:02.222Z,28.09
2022-08-28T16:34:31.572Z,28.07
2022-08-28T16:36:59.851Z,28.02
2022-08-28T16:39:28.532Z,27.96
2022-08-28T16:41:56.309Z,27.92
2022-08-28T16:44:26.682Z,27.87
2022-08-28T16:46:55.251Z,27.79
2022-08-28T16:49:23.596Z,27.75
2022-08-28T16:51:51.537Z,27.66
2022-08-28T16:54:19.476Z,27.59
2022-08-28T16:56:47.597Z,27.55
2022-08-28T16:59:16.590Z,27.49
2022-08-28T17:01:45.958Z,27.42
2022-08-28T17:04:21.399Z,27.37
2022-08-28T17:06:49.273Z,27.32
2022-08-28T17:09:17.087Z,27.24
2022-08-28T17:11:52.082Z,27.20
2022-08-28T17:14:20.534Z,27.13
2022-08-28T17:16:50.166Z,27.08
2022-08-28T17:19:18.229Z,27.03
2022-08-28T17:22:03.921Z,26.96
2022-08-28T17:24:31.879Z,26.91
2022-08-28T17:27:05.215Z,26.84
2022-08-28T17:29:33.572Z,26.77
2022-08-28T17:32:02.791Z,26.70
2022-08-28T17:34:30.818Z,26.62
2022-08-28T17:36:58.673Z,26.58
2022-08-28T17:39:26.639Z,26.53
2022-08-28T17:41:54.485Z,26.50
2022-08-28T17:44:22.308Z,26.42
2022-08-28T17:46:51.685Z,26.37
2022-08-28T17:49:22.399Z,26.33
2022-08-28T17:51:51.145Z,26.24
2022-08-28T17:54:21.549Z,26.20
2022-08-28T17:56:49.954Z,26.14
2022-08-28T17:59:17.903Z,26.09
2022-08-28T18:01:47.114Z,26.02
2022-08-28T18:04:20.121Z,26.00
2022-08-28T18:06:54.615Z,25.95
2022-08-28T18:09:23.423Z,25.91
2022-08-28T18:11:51.778Z,25.84
2022-08-28T18:14:19.596Z,25.78
2022-08-28T18:16:47.545Z,25.73
2022-08-28T18:19:16.320Z,25.62
2022-08-28T18:21:44.757Z,25.58
2022-08-28T18:24:14.029Z,25.51
2022-08-28T18:26:42.596Z,25.42
2022-08-28T18:29:10.769Z,25.38
2022-08-28T18:31:38.667Z,25.29
2022-08-28T18:34:06.884Z,25.24
2022-08-28T18:36:34.753Z,25.18
2022-08-28T18:39:02.613Z,25.12
2022-08-28T18:41:43.076Z,25.10
2022-08-28T18:44:13.256Z,25.03
2022-08-28T18:46:41.606Z,24.96
2022-08-28T18:49:09.954Z,24.94
2022-08-28T18:51:37.773Z,24.89
2022-08-28T18:54:06.243Z,24.84
2022-08-28T18:56:36.046Z,24.78
2022-08-28T18:59:06.800Z,24.71
2022-08-28T19:01:35.137Z,24.59
2022-08-28T19:04:03.255Z,24.51
2022-08-28T19:06:31.133Z,24.48
2022-08-28T19:08:59.169Z,24.43
2022-08-28T19:11:29.992Z,24.35
2022-08-28T19:13:59.684Z,24.28
2022-08-28T19:16:32.228Z,24.20
2022-08-28T19:19:00.151Z,24.11
2022-08-28T19:21:29.342Z,23.99
2022-08-28T19:23:57.607Z,23.91
2022-08-28T19:26:26.223Z,23.82
2022-08-28T19:28:54.689Z,23.75
2022-08-28T19:31:28.270Z,23.66
2022-08-28T19:33:57.133Z,23.60
2022-08-28T19:36:27.084Z,23.53
2022-08-28T19:38:54.858Z,23.49
2022-08-28T19:41:23.003Z,23.42
2022-08-28T19:43:50.904Z,23.35
2022-08-28T19:46:19.931Z,23.26
2022-08-28T19:48:50.991Z,23.18
2022-08-28T19:51:23.305Z,23.12
2022-08-28T19:53:58.709Z,23.05
2022-08-28T19:56:28.108Z,22.98
2022-08-28T19:58:57.487Z,22.91
2022-08-28T20:01:25.535Z,22.80
2022-08-28T20:03:54.988Z,22.73
2022-08-28T20:06:22.827Z,22.68
2022-08-28T20:08:51.898Z,22.60
2022-08-28T20:11:25.299Z,22.51
2022-08-28T20:13:53.512Z,22.44
2022-08-28T20:16:21.489Z,22.40
2022-08-28T20:18:50.340Z,22.36
2022-08-28T20:21:32.973Z,22.31
2022-08-28T20:24:07.308Z,22.26
2022-08-28T20:26:35.214Z,22.21
2022-08-28T20:29:03.252Z,22.13
2022-08-28T20:31:31.061Z,22.08
2022-08-28T20:33:59.041Z,21.99
2022-08-28T20:36:28.193Z,21.90
2022-08-28T20:38:55.999Z,21.84
2022-08-28T20:41:25.291Z,21.80
2022-08-28T20:43:53.200Z,21.75
2022-08-28T20:46:21.477Z,21.73
2022-08-28T20:48:49.310Z,21.64
2022-08-28T20:51:17.153Z,21.60
2022-08-28T20:53:46.545Z,21.58
2022-08-28T20:56:14.347Z,21.55
2022-08-28T20:58:42.185Z,21.55
2022-08-28T21:01:10.406Z,21.51
2022-08-28T21:03:38.174Z,21.46
2022-08-28T21:06:06.445Z,21.38
2022-08-28T21:08:34.240Z,21.36
2022-08-28T21:11:03.399Z,21.33
2022-08-28T21:13:32.142Z,21.31
2022-08-28T21:15:59.995Z,21.29
2022-08-28T21:18:31.239Z,21.27
2022-08-28T21:20:59.024Z,21.23
2022-08-28T21:23:27.104Z,21.20
2022-08-28T21:25:54.895Z,21.15
2022-08-28T21:28:24.151Z,21.10
2022-08-28T21:30:52.382Z,21.06
2022-08-28T21:33:20.185Z,21.03
2022-08-28T21:35:48.024Z,21.01
2022-08-28T21:38:15.936Z,20.98
2022-08-28T21:40:43.820Z,20.93
2022-08-28T21:43:12.250Z,20.91
2022-08-28T21:45:41.687Z,20.85
2022-08-28T21:48:10.006Z,20.84
2022-08-28T21:50:37.845Z,20.80
2022-08-28T21:53:05.633Z,20.77
2022-08-28T21:55:33.404Z,20.75
2022-08-28T21:58:01.151Z,20.72
2022-08-28T22:00:28.919Z,20.69
2022-08-28T22:02:58.156Z,20.64
2022-08-28T22:05:28.298Z,20.61
2022-08-28T22:07:56.178Z,20.57
2022-08-28T22:10:25.639Z,20.56
2022-08-28T22:12:53.428Z,20.52
2022-08-28T22:15:21.692Z,20.44
2022-08-28T22:17:49.577Z,20.42
2022-08-28T22:20:19.408Z,20.41
2022-08-28T22:23:04.408Z,20.37
2022-08-28T22:25:32.158Z,20.35
2022-08-28T22:28:09.282Z,20.30
2022-08-28T22:30:37.090Z,20.27
2022-08-28T22:33:05.085Z,20.25
2022-08-28T22:35:34.429Z,20.25
2022-08-28T22:38:02.185Z,20.19
2022-08-28T22:40:30.125Z,20.19
2022-08-28T22:42:58.264Z,20.23
2022-08-28T22:45:26.089Z,20.21
2022-08-28T22:47:54.041Z,20.19
2022-08-28T22:50:22.033Z,20.19
2022-08-28T22:52:51.819Z,20.18
2022-08-28T22:55:21.766Z,20.15
2022-08-28T22:57:49.757Z,20.10
2022-08-28T23:00:21.084Z,20.11
2022-08-28T23:02:49.951Z,20.12
2022-08-28T23:05:18.317Z,20.09
2022-08-28T23:07:46.221Z,20.13
2022-08-28T23:10:15.919Z,20.11
2022-08-28T23:12:43.946Z,20.09
2022-08-28T23:15:15.943Z,20.05
2022-08-28T23:17:44.276Z,19.99
2022-08-28T23:20:14.448Z,19.93
2022-08-28T23:22:42.781Z,19.94
2022-08-28T23:25:16.964Z,19.92
2022-08-28T23:27:45.384Z,19.86
2022-08-28T23:30:15.298Z,19.88
2022-08-28T23:32:43.189Z,19.86
2022-08-28T23:35:12.892Z,19.84
2022-08-28T23:37:45.522Z,19.84
2022-08-28T23:40:19.909Z,19.82
2022-08-28T23:42:48.489Z,19.79
2022-08-28T23:45:17.739Z,19.77
2022-08-28T23:47:46.106Z,19.75
2022-08-28T23:50:17.972Z,19.71
2022-08-28T23:52:45.999Z,19.65
2022-08-28T23:55:15.095Z,19.68
2022-08-28T23:57:44.477Z,19.66
